Time;durP1;ratioP1;P1;durP2;ratioP2;P2;SDS_P1;SDS_P2;PMS_P1;PMS_P2;Temp;Humidity;BMP_temperature;BMP_pressure;BME280_temperature;BME280_humidity;BME280_pressure;Samples;Min_cycle;Max_cycle;Signal;HPM_P1;HPM_P2
2022/08/19 00:00:50;;;;;;;7.73;7.13;;;;;;;22.76;77.70;99835.00;4985917;28;20966;-49
2022/08/19 00:03:17;;;;;;;8.07;7.30;;;;;;;22.85;77.18;99839.63;4967191;28;20458;-49
2022/08/19 00:05:43;;;;;;;9.90;8.83;;;;;;;22.79;77.66;99844.69;4966579;28;20457;-50
2022/08/19 00:08:10;;;;;;;10.10;9.23;;;;;;;22.71;77.86;99856.19;4972960;28;20584;-49
2022/08/19 00:10:36;;;;;;;20.53;8.80;;;;;;;22.79;77.44;99850.13;4962479;28;20495;-49
2022/08/19 00:13:04;;;;;;;9.53;8.73;;;;;;;22.82;77.62;99841.72;4976519;28;20458;-50
2022/08/19 00:15:30;;;;;;;8.60;7.80;;;;;;;23.00;77.18;99841.00;4977019;28;20835;-50
2022/08/19 00:17:57;;;;;;;9.80;9.00;;;;;;;23.10;76.46;99842.91;4963753;28;20485;-50
2022/08/19 00:20:23;;;;;;;10.30;9.13;;;;;;;23.05;76.78;99838.75;4963749;28;20451;-50
2022/08/19 00:22:50;;;;;;;8.87;8.07;;;;;;;23.01;76.75;99842.72;4976702;28;20456;-50
2022/08/19 00:25:16;;;;;;;16.87;9.50;;;;;;;;;;4976071;28;20469;-50
2022/08/19 00:27:43;;;;;;;8.97;7.83;;;;;;;23.30;75.64;99834.75;4964120;28;20474;-50
2022/08/19 00:30:10;;;;;;;8.60;7.63;;;;;;;23.15;76.02;99833.38;4976243;28;20500;-50
2022/08/19 00:32:37;;;;;;;8.60;7.87;;;;;;;22.77;77.53;99832.13;4976534;28;20460;-49
2022/08/19 00:35:05;;;;;;;12.70;8.60;;;;;;;22.76;77.78;99837.69;4976446;28;20509;-50
2022/08/19 00:37:32;;;;;;;37.93;9.57;;;;;;;22.66;78.35;99837.63;4968850;28;20479;-50
2022/08/19 00:39:59;;;;;;;11.37;9.20;;;;;;;22.74;78.33;99840.50;4970955;28;20457;-50
2022/08/19 00:42:28;;;;;;;11.03;8.53;;;;;;;22.68;78.46;99843.75;4976393;28;20454;-50
2022/08/19 00:44:54;;;;;;;8.63;8.03;;;;;;;22.58;79.22;99840.13;4963205;28;20483;-50
2022/08/19 00:47:21;;;;;;;10.70;9.10;;;;;;;22.50;79.45;99839.94;4976260;28;20458;-50
2022/08/19 00:49:52;;;;;;;13.10;8.83;;;;;;;22.57;78.87;99838.41;4973985;28;20490;-50
2022/08/19 00:52:30;;;;;;;8.10;7.30;;;;;;;22.58;79.04;99837.41;4965766;28;20446;-50
2022/08/19 00:54:57;;;;;;;8.47;7.93;;;;;;;22.66;78.73;99824.06;4975948;28;20956;-50
2022/08/19 00:57:32;;;;;;;11.30;7.80;;;;;;;22.66;78.21;99831.34;4965203;28;20477;-51
2022/08/19 00:59:59;;;;;;;9.03;8.17;;;;;;;22.62;79.27;99822.63;4981349;28;20441;-49
2022/08/19 01:02:30;;;;;;;9.73;8.03;;;;;;;22.61;79.22;99823.59;4982618;28;20526;-49
2022/08/19 01:04:57;;;;;;;9.03;7.37;;;;;;;22.62;79.02;99814.50;4963224;28;20456;-49
2022/08/19 01:07:24;;;;;;;9.40;7.33;;;;;;;22.73;78.17;99813.53;4975514;28;20466;-50
2022/08/19 01:09:51;;;;;;;10.97;9.93;;;;;;;22.61;78.98;99810.03;4969084;28;20487;-49
2022/08/19 01:12:18;;;;;;;10.50;7.00;;;;;;;22.63;78.47;99818.94;4970097;28;20446;-50
2022/08/19 01:14:47;;;;;;;8.63;7.70;;;;;;;22.90;77.70;99817.56;4975888;28;20440;-49
2022/08/19 01:17:15;;;;;;;10.20;7.93;;;;;;;22.76;77.87;99814.16;4962676;28;20473;-49
2022/08/19 01:19:43;;;;;;;17.50;8.10;;;;;;;22.69;78.57;99806.69;4975847;28;20457;-49
2022/08/19 01:22:42;;;;;;;8.90;7.30;;;;;;;22.83;77.63;99808.22;4973225;28;20455;-49
2022/08/19 01:25:08;;;;;;;8.40;7.57;;;;;;;23.22;76.33;99801.16;4968641;28;20447;-50
2022/08/19 01:27:43;;;;;;;10.00;8.13;;;;;;;22.88;76.57;99805.97;4962972;28;20479;-50
2022/08/19 01:30:33;;;;;;;10.03;9.00;;;;;;;23.16;75.69;99793.53;4962573;28;20494;-50
2022/08/19 01:33:00;;;;;;;9.33;7.87;;;;;;;23.21;75.55;99789.44;4975308;28;20561;-51
2022/08/19 01:35:29;;;;;;;10.30;9.30;;;;;;;23.02;76.38;99786.63;4975295;28;20454;-50
2022/08/19 01:38:01;;;;;;;14.07;8.67;;;;;;;23.20;75.76;99786.88;4964369;28;20856;-50
2022/08/19 01:40:32;;;;;;;10.13;9.20;;;;;;;22.81;77.17;99794.78;4973635;28;20822;-50
2022/08/19 01:42:59;;;;;;;11.60;8.50;;;;;;;22.75;77.37;99804.31;4973983;28;20824;-51
2022/08/19 01:45:28;;;;;;;8.87;8.03;;;;;;;22.63;78.43;99804.53;4962321;28;20454;-50
2022/08/19 01:47:56;;;;;;;11.03;9.80;;;;;;;22.58;78.41;99813.03;4974852;28;20470;-50
2022/08/19 01:50:29;;;;;;;8.77;8.27;;;;;;;22.60;78.56;99816.44;4967661;28;20487;-50
2022/08/19 01:52:55;;;;;;;9.50;8.60;;;;;;;22.88;78.03;99824.94;4969566;28;20462;-50
2022/08/19 01:55:32;;;;;;;9.03;8.10;;;;;;;22.79;77.32;99815.75;4974944;28;21018;-50
2022/08/19 01:58:02;;;;;;;9.33;8.47;;;;;;;22.78;77.50;99814.03;4961678;28;20474;-50
2022/08/19 02:00:31;;;;;;;12.63;9.40;;;;;;;23.20;76.28;99816.69;4984945;28;20506;-50
2022/08/19 02:02:58;;;;;;;10.53;9.60;;;;;;;23.20;75.87;99804.00;4972550;28;20530;-51
2022/08/19 02:05:24;;;;;;;12.53;9.20;;;;;;;22.91;76.83;99809.28;4965399;28;20489;-49
2022/08/19 02:07:51;;;;;;;8.87;7.97;;;;;;;23.05;76.19;99797.22;4974587;28;20510;-50
2022/08/19 02:10:21;;;;;;;11.90;9.70;;;;;;;22.83;77.28;99803.66;4964712;28;20505;-50
2022/08/19 02:12:49;;;;;;;9.73;8.83;;;;;;;22.64;77.96;99809.81;4972462;28;20454;-50
2022/08/19 02:15:18;;;;;;;11.60;8.03;;;;;;;22.72;78.08;99818.09;4974541;28;20457;-50
2022/08/19 02:17:45;;;;;;;7.20;6.73;;;;;;;22.73;77.83;99808.97;4961354;28;20474;-50
2022/08/19 02:20:13;;;;;;;8.97;8.17;;;;;;;22.93;76.71;99820.84;4974677;28;20443;-50
2022/08/19 02:22:43;;;;;;;9.30;8.40;;;;;;;23.11;76.69;99820.22;4969066;28;20786;-49
2022/08/19 02:25:11;;;;;;;7.80;7.10;;;;;;;22.84;76.67;99826.22;4967386;28;20450;-50
2022/08/19 02:27:38;;;;;;;8.63;7.90;;;;;;;22.98;76.95;99820.44;4974323;28;20553;-50
2022/08/19 02:30:07;;;;;;;7.53;6.97;;;;;;;22.70;77.77;99828.22;4961511;28;20827;-50
2022/08/19 02:32:39;;;;;;;12.13;8.97;;;;;;;22.57;78.56;99814.00;4962340;28;21315;-49
2022/08/19 02:35:10;;;;;;;15.87;7.13;;;;;;;22.58;77.99;99818.44;4974356;28;20885;-50
2022/08/19 02:40:23;;;;;;;9.90;8.27;;;;;;;22.77;77.58;99817.72;4971862;28;20449;-50
2022/08/19 02:42:50;;;;;;;9.20;7.93;;;;;;;22.41;79.07;99824.44;4973962;28;20454;-50
2022/08/19 02:45:17;;;;;;;8.90;8.10;;;;;;;22.45;78.57;99829.47;4961203;28;20509;-49
2022/08/19 02:47:43;;;;;;;9.40;8.50;;;;;;;22.37;78.89;99836.53;4974275;28;20858;-50
2022/08/19 02:50:10;;;;;;;16.77;8.40;;;;;;;22.68;77.30;99841.06;4969330;28;20454;-50
2022/08/19 02:52:36;;;;;;;9.40;8.60;;;;;;;23.01;76.54;99847.28;4965808;28;20461;-50
2022/08/19 02:55:04;;;;;;;10.20;9.23;;;;;;;22.94;76.90;99843.41;4973821;28;20458;-50
2022/08/19 02:57:31;;;;;;;14.13;8.87;;;;;;;23.02;76.00;99844.44;4962624;28;20471;-49
2022/08/19 02:59:58;;;;;;;9.40;8.30;;;;;;;22.89;76.82;99834.78;4978305;28;20441;-50
2022/08/19 03:02:25;;;;;;;15.33;8.53;;;;;;;22.82;77.13;99839.88;4980651;28;20537;-50
2022/08/19 03:04:51;;;;;;;8.63;7.90;;;;;;;22.63;77.76;99829.75;4960798;28;20454;-50
2022/08/19 03:07:18;;;;;;;9.57;8.63;;;;;;;22.73;77.75;99825.25;4973714;28;20827;-50
2022/08/19 03:09:45;;;;;;;9.33;8.43;;;;;;;22.73;77.61;99829.81;4960957;28;20468;-50
2022/08/19 03:12:11;;;;;;;10.70;8.50;;;;;;;22.41;78.88;99833.44;4960541;28;20993;-50
2022/08/19 03:14:38;;;;;;;14.73;9.17;;;;;;;22.40;78.95;99831.72;4973979;28;20464;-50
2022/08/19 03:17:04;;;;;;;14.90;8.10;;;;;;;22.26;79.27;99826.63;4973251;28;20450;-50
2022/08/19 03:19:31;;;;;;;9.73;8.93;;;;;;;22.40;79.15;99822.72;4960897;28;20466;-51
2022/08/19 03:21:58;;;;;;;13.07;8.37;;;;;;;22.12;79.90;99816.94;4973707;28;20862;-50
2022/08/19 03:24:24;;;;;;;8.33;7.67;;;;;;;22.33;79.34;99813.41;4966735;28;20937;-50
2022/08/19 03:26:57;;;;;;;8.27;7.33;;;;;;;22.07;80.29;99818.34;4967903;28;20818;-49
2022/08/19 03:29:28;;;;;;;10.30;9.20;;;;;;;22.31;79.42;99824.38;4973438;28;20987;-50
2022/08/19 03:32:03;;;;;;;9.87;7.67;;;;;;;22.23;79.72;99818.75;4960422;28;20536;-50
2022/08/19 03:34:31;;;;;;;9.87;8.47;;;;;;;22.21;79.45;99828.00;4973516;28;20461;-50
2022/08/19 03:37:03;;;;;;;13.43;7.80;;;;;;;22.02;80.32;99834.91;4969714;28;20453;-50
2022/08/19 03:39:29;;;;;;;8.50;7.63;;;;;;;22.09;80.66;99833.47;4965260;28;20454;-50
2022/08/19 03:42:05;;;;;;;9.53;7.13;;;;;;;22.16;79.56;99833.78;4973580;28;20525;-50
2022/08/19 03:44:52;;;;;;;10.37;9.40;;;;;;;22.19;79.70;99836.22;4961020;28;20451;-49
2022/08/19 03:47:18;;;;;;;8.10;7.37;;;;;;;22.26;79.50;99840.16;4977319;28;20454;-50
2022/08/19 03:49:45;;;;;;;9.13;7.07;;;;;;;22.08;80.56;99842.56;4975098;28;20971;-50
2022/08/19 03:52:11;;;;;;;8.77;7.03;;;;;;;22.01;81.06;99841.31;4966614;28;21034;-50
2022/08/19 03:54:39;;;;;;;11.00;8.07;;;;;;;22.06;80.54;99840.94;4977258;28;20525;-50
2022/08/19 03:57:06;;;;;;;7.77;7.13;;;;;;;21.99;81.27;99848.69;4968080;28;20451;-50
2022/08/19 03:59:35;;;;;;;8.10;7.30;;;;;;;21.84;81.88;99849.97;4973142;28;20955;-50
2022/08/19 04:02:08;;;;;;;8.27;7.60;;;;;;;22.05;80.72;99850.03;4975721;28;20454;-50
2022/08/19 04:04:37;;;;;;;7.83;7.10;;;;;;;22.07;80.58;99853.53;4964050;28;20453;-50
2022/08/19 04:07:04;;;;;;;15.33;9.00;;;;;;;21.97;80.90;99861.50;4976914;28;20960;-50
2022/08/19 04:09:30;;;;;;;8.50;7.73;;;;;;;22.07;80.55;99864.34;4972351;28;20451;-51
2022/08/19 04:11:57;;;;;;;7.13;6.53;;;;;;;22.06;80.82;99858.06;4968678;28;20517;-50
2022/08/19 04:14:29;;;;;;;11.80;8.10;;;;;;;22.07;80.80;99864.34;4976988;28;20460;-51
2022/08/19 04:16:57;;;;;;;9.03;8.00;;;;;;;22.28;79.78;99864.41;4964878;28;20470;-50
2022/08/19 04:19:23;;;;;;;9.53;6.87;;;;;;;21.98;80.73;99860.53;4976530;28;20486;-50
2022/08/19 04:21:52;;;;;;;8.10;7.40;;;;;;;22.33;79.51;99863.00;4976724;28;20450;-50
2022/08/19 04:24:20;;;;;;;9.57;6.40;;;;;;;22.31;79.50;99856.88;4963599;28;20450;-50
2022/08/19 04:26:47;;;;;;;6.30;5.80;;;;;;;22.10;80.04;99855.97;4976552;28;20454;-50
2022/08/19 04:29:26;;;;;;;8.50;7.60;;;;;;;22.20;79.70;99853.34;4963782;28;20470;-50
2022/08/19 04:31:55;;;;;;;6.03;5.53;;;;;;;22.23;78.70;99861.22;4963426;28;20843;-50
2022/08/19 04:34:23;;;;;;;8.07;7.30;;;;;;;22.16;79.77;99858.16;4976533;28;20460;-50
2022/08/19 04:36:52;;;;;;;7.90;7.13;;;;;;;22.17;79.54;99859.88;4973586;28;20551;-49
2022/08/19 04:42:38;;;;;;;5.23;4.83;;;;;;;22.14;79.81;99857.44;4966390;28;20474;-52
2022/08/19 04:44:56;;;;;;;9.53;8.17;;;;;;;22.08;79.92;99857.94;4973322;28;20462;-50
2022/08/19 04:47:24;;;;;;;6.20;5.57;;;;;;;22.15;79.52;99854.59;4966952;28;20875;-50
2022/08/19 04:50:11;;;;;;;6.30;5.57;;;;;;;22.18;79.77;99856.16;4976109;28;20458;-50
2022/08/19 04:52:41;;;;;;;5.07;4.67;;;;;;;21.95;80.16;99857.22;4963553;28;20490;-51
2022/08/19 04:55:10;;;;;;;8.77;7.87;;;;;;;22.07;80.09;99856.25;4976363;28;20451;-50
2022/08/19 04:57:39;;;;;;;7.10;6.40;;;;;;;22.03;80.22;99862.84;4973834;28;20470;-51
2022/08/19 05:00:08;;;;;;;8.17;7.10;;;;;;;21.78;81.39;99856.72;4971326;28;20442;-51
2022/08/19 05:02:34;;;;;;;13.07;5.90;;;;;;;21.65;81.52;99864.13;4980767;28;20447;-50
2022/08/19 05:05:01;;;;;;;6.93;6.53;;;;;;;21.47;82.05;99857.50;4964095;28;20450;-50
2022/08/19 05:07:29;;;;;;;7.23;6.10;;;;;;;21.23;83.22;99863.88;4975762;28;20478;-50
2022/08/19 05:09:55;;;;;;;7.00;6.33;;;;;;;21.13;84.06;99873.72;4968181;28;20953;-50
2022/08/19 05:12:25;;;;;;;5.40;5.10;;;;;;;21.24;83.80;99864.72;4970961;28;20489;-50
2022/08/19 05:14:56;;;;;;;10.83;5.80;;;;;;;21.24;83.91;99867.44;4975645;28;20454;-50
2022/08/19 05:17:24;;;;;;;5.93;5.47;;;;;;;21.30;83.89;99867.00;4962785;28;20455;-50
2022/08/19 05:22:41;;;;;;;8.60;7.30;;;;;;;21.69;82.30;99872.88;4969572;28;21030;-51
2022/08/19 05:25:13;;;;;;;6.10;5.40;;;;;;;21.78;81.71;99874.81;4968786;28;20538;-51
2022/08/19 05:27:41;;;;;;;7.00;6.40;;;;;;;21.79;81.50;99871.13;4962990;28;20546;-50
2022/08/19 05:30:09;;;;;;;6.03;5.43;;;;;;;21.94;81.04;99871.75;4974898;28;20456;-50
2022/08/19 05:32:35;;;;;;;6.00;5.50;;;;;;;22.10;80.74;99872.22;4963713;28;20580;-50
2022/08/19 05:35:03;;;;;;;8.23;6.43;;;;;;;22.57;78.72;99872.75;4975487;28;20465;-50
2022/08/19 05:37:30;;;;;;;6.27;5.73;;;;;;;22.54;79.02;99875.75;4967081;28;20485;-50
2022/08/19 05:39:56;;;;;;;8.20;6.60;;;;;;;22.56;78.75;99877.31;4970351;28;20545;-50
2022/08/19 05:42:23;;;;;;;10.13;6.93;;;;;;;22.47;78.76;99876.25;4975182;28;21007;-50
2022/08/19 05:44:50;;;;;;;7.17;6.47;;;;;;;22.41;79.56;99881.34;4962075;28;20455;-51
2022/08/19 05:47:19;;;;;;;7.37;6.67;;;;;;;22.76;77.76;99886.47;4975209;28;20454;-50
2022/08/19 05:49:49;;;;;;;6.80;6.20;;;;;;;22.87;77.54;99885.56;4973065;28;20502;-51
2022/08/19 05:52:16;;;;;;;12.93;6.87;;;;;;;22.93;77.53;99882.34;4964550;28;20644;-50
2022/08/19 05:54:47;;;;;;;5.80;5.40;;;;;;;22.97;77.23;99883.78;4974794;28;20941;-50
2022/08/19 05:57:17;;;;;;;5.67;5.23;;;;;;;23.25;75.83;99880.38;4965171;28;20455;-50
2022/08/19 05:59:46;;;;;;;8.33;7.77;;;;;;;23.25;76.92;99887.66;4975841;28;20951;-50
2022/08/19 06:02:13;;;;;;;13.30;6.70;;;;;;;23.19;76.65;99891.78;4983994;28;20581;-50
2022/08/19 06:04:42;;;;;;;12.23;7.50;;;;;;;23.29;76.34;99906.25;4960394;28;20928;-51
2022/08/19 06:07:09;;;;;;;8.60;8.00;;;;;;;23.33;75.92;99905.00;4973180;28;20466;-50
2022/08/19 06:09:39;;;;;;;6.87;6.37;;;;;;;23.46;75.49;99912.91;4969529;28;20456;-50
2022/08/19 06:12:06;;;;;;;11.97;7.53;;;;;;;23.50;75.38;99914.34;4967161;28;20494;-50
2022/08/19 06:14:35;;;;;;;9.70;7.73;;;;;;;23.32;75.95;99916.84;4974450;28;20824;-51
2022/08/19 06:17:05;;;;;;;20.93;8.90;;;;;;;23.40;75.71;99913.44;4961782;28;20455;-51
2022/08/19 06:19:33;;;;;;;9.97;7.70;;;;;;;23.17;76.28;99926.31;4961465;28;20496;-51
2022/08/19 06:22:06;;;;;;;26.07;6.57;;;;;;;23.37;76.18;99932.72;4961492;28;20538;-50
2022/08/19 06:24:32;;;;;;;10.53;7.10;;;;;;;23.16;76.88;99939.97;4974524;28;20465;-50
2022/08/19 06:26:59;;;;;;;5.97;5.57;;;;;;;23.32;76.16;99951.25;4972998;28;20454;-51
2022/08/19 06:29:29;;;;;;;12.17;8.67;;;;;;;23.24;76.47;99946.47;4963047;28;20506;-50
2022/08/19 06:31:57;;;;;;;8.77;8.07;;;;;;;23.31;76.01;99947.69;4974184;28;20860;-50
2022/08/19 06:34:27;;;;;;;30.60;9.67;;;;;;;23.33;76.52;99953.81;4965409;28;20443;-51
2022/08/19 06:36:54;;;;;;;8.73;8.00;;;;;;;23.30;76.60;99959.53;4973922;28;20847;-51
2022/08/19 06:39:26;;;;;;;14.23;9.50;;;;;;;23.35;76.14;99964.53;4969362;28;20479;-50
2022/08/19 06:41:56;;;;;;;12.03;7.17;;;;;;;23.53;75.66;99965.63;4968299;28;20486;-50
2022/08/19 06:44:26;;;;;;;8.83;8.03;;;;;;;23.65;75.78;99969.16;4965804;28;20454;-50
2022/08/19 06:46:55;;;;;;;8.43;7.70;;;;;;;23.81;75.49;99958.66;4974158;28;20451;-50
2022/08/19 06:49:22;;;;;;;7.87;7.23;;;;;;;23.72;75.22;99953.22;4962553;28;20463;-50
2022/08/19 06:51:50;;;;;;;17.33;8.60;;;;;;;23.60;75.29;99956.00;4972589;28;20864;-50
2022/08/19 06:54:18;;;;;;;18.33;10.03;;;;;;;23.68;75.72;99962.59;4974521;28;20482;-49
2022/08/19 06:56:46;;;;;;;9.60;8.70;;;;;;;24.03;74.33;99973.91;4960858;28;21011;-51
2022/08/19 06:59:17;;;;;;;7.27;6.70;;;;;;;24.14;74.17;99962.94;4973752;28;20628;-50
2022/08/19 07:01:46;;;;;;;10.77;7.30;;;;;;;23.98;74.61;99973.44;4961468;28;20546;-50
2022/08/19 07:04:19;;;;;;;8.23;7.50;;;;;;;23.94;74.92;99970.16;4960923;28;20920;-50
2022/08/19 07:06:46;;;;;;;13.43;7.90;;;;;;;23.88;75.36;99969.84;4973765;28;20877;-50
2022/08/19 07:09:21;;;;;;;7.70;6.97;;;;;;;24.12;74.99;99958.63;4970696;28;20521;-50
2022/08/19 07:11:52;;;;;;;10.93;8.33;;;;;;;24.37;73.42;99969.00;4963665;28;20490;-50
2022/08/19 07:14:21;;;;;;;10.40;9.13;;;;;;;24.17;74.33;99962.66;4973859;28;20450;-50
2022/08/19 07:16:50;;;;;;;8.67;7.93;;;;;;;24.17;74.23;99959.94;4963440;28;20459;-50
2022/08/19 07:19:18;;;;;;;7.23;6.53;;;;;;;24.19;74.11;99962.53;4970726;28;20482;-50
2022/08/19 07:21:47;;;;;;;6.37;5.87;;;;;;;24.39;74.01;99961.59;4973514;28;20446;-51
2022/08/19 07:24:15;;;;;;;9.30;8.43;;;;;;;24.20;74.12;99956.09;4960460;28;20466;-52
2022/08/19 07:26:43;;;;;;;8.30;7.70;;;;;;;24.13;74.32;99969.38;4973737;28;20465;-50
2022/08/19 07:29:11;;;;;;;9.27;8.10;;;;;;;24.06;74.45;99951.03;4968226;28;20537;-51
2022/08/19 07:31:39;;;;;;;16.33;6.90;;;;;;;24.17;74.76;99954.50;4966282;28;20526;-50
2022/08/19 07:34:13;;;;;;;14.00;8.63;;;;;;;23.97;75.43;99957.28;4973375;28;20508;-51
2022/08/19 07:36:41;;;;;;;8.73;7.50;;;;;;;24.11;75.12;99960.47;4972799;28;20974;-51
2022/08/19 07:39:18;;;;;;;19.07;9.93;;;;;;;24.26;74.38;99962.81;4961267;28;20486;-50
2022/08/19 07:41:45;;;;;;;23.23;10.83;;;;;;;24.51;73.63;99959.59;4973338;28;20940;-50
2022/08/19 07:44:13;;;;;;;14.90;9.47;;;;;;;24.66;72.94;99966.34;4964720;28;20898;-50
2022/08/19 07:46:44;;;;;;;11.60;9.37;;;;;;;24.60;73.28;99963.34;4969510;28;20454;-50
2022/08/19 07:49:18;;;;;;;13.40;9.90;;;;;;;24.77;72.46;99970.78;4973390;28;20505;-50
2022/08/19 07:51:48;;;;;;;14.87;9.77;;;;;;;24.80;72.81;99973.22;4960425;28;20489;-51
2022/08/19 07:54:15;;;;;;;10.67;9.47;;;;;;;24.77;72.87;99968.94;4973501;28;20450;-50
2022/08/19 07:56:42;;;;;;;11.10;9.93;;;;;;;24.80;72.92;99968.63;4968632;28;20472;-49
2022/08/19 07:59:09;;;;;;;16.60;9.17;;;;;;;24.97;71.76;99971.66;4965339;28;20505;-50
2022/08/19 08:01:36;;;;;;;8.80;8.00;;;;;;;24.90;72.78;99968.66;4986115;28;20470;-50
2022/08/19 08:09:41;;;;;;;17.47;11.33;;;;;;;24.90;72.62;99976.81;4968263;28;20447;-50
2022/08/19 08:12:15;;;;;;;9.50;8.50;;;;;;;24.88;72.13;99977.94;4965593;28;20904;-50
2022/08/19 08:15:07;;;;;;;43.17;8.83;;;;;;;25.20;71.60;99973.09;4962964;28;20450;-51
2022/08/19 08:17:38;;;;;;;14.70;10.00;;;;;;;25.20;71.48;99983.97;4959962;28;20864;-50
2022/08/19 08:20:15;;;;;;;18.13;9.83;;;;;;;25.32;71.08;99984.69;4972773;28;20857;-51
2022/08/19 08:25:31;;;;;;;9.63;7.43;;;;;;;25.57;70.45;99986.78;4968937;28;20794;-50
2022/08/19 08:28:00;;;;;;;8.77;8.07;;;;;;;25.75;69.75;99986.91;4972873;28;20506;-51
2022/08/19 08:30:29;;;;;;;12.13;10.17;;;;;;;25.37;70.55;99983.25;4960103;28;20549;-51
2022/08/19 08:32:58;;;;;;;19.13;12.37;;;;;;;25.62;69.86;99981.75;4976424;28;20549;-51
2022/08/19 08:35:25;;;;;;;10.97;9.87;;;;;;;25.56;70.05;99992.38;4976444;28;20541;-50
2022/08/19 08:37:53;;;;;;;14.33;9.90;;;;;;;25.95;68.59;99982.25;4966546;28;20500;-51
2022/08/19 08:40:45;;;;;;;11.67;10.30;;;;;;;25.84;69.02;99987.88;4973841;28;20461;-50
2022/08/19 08:43:30;;;;;;;12.93;10.03;;;;;;;25.86;68.20;99983.13;4975187;28;20446;-51
2022/08/19 08:46:05;;;;;;;11.73;10.60;;;;;;;25.79;68.45;99982.03;4967112;28;20446;-51
2022/08/19 08:48:35;;;;;;;12.10;10.80;;;;;;;25.21;70.21;99973.94;4974989;28;20476;-51
2022/08/19 08:51:07;;;;;;;12.83;8.83;;;;;;;25.81;68.88;99982.75;4964455;28;20457;-51
2022/08/19 08:53:35;;;;;;;12.10;10.43;;;;;;;25.87;67.38;99980.25;4975458;28;20569;-50
2022/08/19 08:56:12;;;;;;;10.70;9.60;;;;;;;25.85;67.77;99985.00;4975496;28;20422;-50
2022/08/19 08:58:48;;;;;;;16.03;12.53;;;;;;;25.83;67.31;99988.88;4964508;28;20470;-50
2022/08/19 09:01:20;;;;;;;13.83;9.87;;;;;;;25.91;67.38;99987.16;4988950;28;20462;-50
2022/08/19 09:03:47;;;;;;;14.60;9.83;;;;;;;25.93;66.79;99985.13;4964682;28;20447;-51
2022/08/19 09:06:22;;;;;;;10.17;8.00;;;;;;;26.11;66.00;99989.78;4971683;28;20823;-51
2022/08/19 09:09:23;;;;;;;8.63;7.93;;;;;;;26.09;66.00;99989.06;4975701;28;20982;-50
2022/08/19 09:12:06;;;;;;;8.83;8.13;;;;;;;25.96;66.45;99997.59;4966769;28;20489;-51
2022/08/19 09:14:45;;;;;;;15.10;10.07;;;;;;;26.46;63.89;99989.06;4963343;28;20533;-53
2022/08/19 09:17:17;;;;;;;11.13;10.00;;;;;;;26.49;64.18;99997.78;4975667;28;20454;-52
2022/08/19 09:20:08;;;;;;;7.67;6.97;;;;;;;26.65;61.78;100002.53;4967584;28;20458;-53
2022/08/19 09:22:36;;;;;;;8.47;7.73;;;;;;;26.74;61.79;100004.34;4974063;28;20446;-53
2022/08/19 09:25:04;;;;;;;10.23;7.50;;;;;;;26.77;61.85;99998.59;4975555;28;20455;-53
2022/08/19 09:27:31;;;;;;;8.20;7.60;;;;;;;26.71;62.11;99996.47;4962408;28;20563;-53
2022/08/19 09:30:14;;;;;;;11.30;8.77;;;;;;;27.27;61.39;99989.84;4975476;28;20425;-53
2022/08/19 09:32:42;;;;;;;8.50;7.70;;;;;;;27.52;61.09;99990.03;4967734;28;20549;-54
2022/08/19 09:35:10;;;;;;;8.27;7.53;;;;;;;27.53;60.72;99989.88;4970337;28;20428;-53
2022/08/19 09:37:38;;;;;;;8.63;7.93;;;;;;;27.27;60.71;99981.66;4967033;28;20501;-53
2022/08/19 09:40:06;;;;;;;7.50;6.90;;;;;;;27.62;59.72;99969.81;4971143;28;20462;-53
2022/08/19 09:42:34;;;;;;;7.27;6.33;;;;;;;27.65;59.18;99963.19;4965552;28;20502;-54
2022/08/19 09:45:02;;;;;;;7.93;7.10;;;;;;;27.94;57.75;99965.56;4971130;28;20454;-53
2022/08/19 09:47:37;;;;;;;14.30;5.10;;;;;;;27.96;56.06;99968.97;4975102;28;20473;-54
2022/08/19 09:50:14;;;;;;;4.50;4.10;;;;;;;27.61;55.91;99964.50;4962104;28;20450;-53
2022/08/19 09:52:42;;;;;;;4.47;4.20;;;;;;;27.89;55.23;99963.31;4974940;28;20490;-54
2022/08/19 09:55:20;;;;;;;6.33;5.73;;;;;;;27.64;55.77;99967.78;4962545;28;20537;-53
2022/08/19 09:57:49;;;;;;;6.53;5.90;;;;;;;27.64;56.71;99962.34;4961883;28;20503;-53
2022/08/19 10:00:15;;;;;;;5.57;4.97;;;;;;;26.95;56.57;99960.38;4983111;28;20452;-53
2022/08/19 10:02:42;;;;;;;6.47;5.53;;;;;;;27.41;55.95;99967.47;4978122;28;20825;-54
2022/08/19 10:07:56;;;;;;;3.80;3.60;;;;;;;27.65;54.08;99963.19;4974644;28;20459;-53
2022/08/19 10:10:23;;;;;;;4.40;4.20;;;;;;;27.59;54.55;99955.63;4974764;28;20457;-54
2022/08/19 10:12:50;;;;;;;4.73;3.40;;;;;;;27.38;55.19;99956.84;4961373;28;20490;-54
2022/08/19 10:15:20;;;;;;;6.70;4.10;;;;;;;27.88;53.86;99958.88;4974924;28;20429;-54
2022/08/19 10:17:54;;;;;;;4.53;4.13;;;;;;;27.83;53.45;99950.34;4968548;28;20487;-54
2022/08/19 10:20:22;;;;;;;4.80;4.50;;;;;;;27.79;53.32;99951.66;4968504;28;20482;-54
2022/08/19 10:22:49;;;;;;;3.73;3.53;;;;;;;27.98;53.49;99953.31;4974446;28;20542;-52
2022/08/19 10:25:18;;;;;;;4.97;4.00;;;;;;;27.99;53.39;99938.63;4961281;28;20459;-53
2022/08/19 10:27:45;;;;;;;5.07;4.00;;;;;;;28.39;52.52;99937.94;4974219;28;20470;-54
2022/08/19 10:30:17;;;;;;;2.90;2.80;;;;;;;28.56;48.12;99936.09;4973435;28;20482;-53
2022/08/19 10:32:45;;;;;;;6.90;3.10;;;;;;;28.77;48.09;99943.78;4962677;28;21027;-53
2022/08/19 10:35:14;;;;;;;2.83;2.73;;;;;;;28.76;47.85;99933.88;4974181;28;20795;-53
2022/08/19 10:37:47;;;;;;;3.80;3.50;;;;;;;28.71;49.71;99939.00;4965104;28;20530;-53
2022/08/19 10:40:28;;;;;;;2.97;2.77;;;;;;;28.62;48.60;99933.53;4972287;28;20481;-53
2022/08/19 10:42:55;;;;;;;2.43;2.23;;;;;;;28.67;45.56;99932.19;4974268;28;20450;-52
2022/08/19 10:45:25;;;;;;;2.60;2.40;;;;;;;28.96;42.96;99928.97;4961114;28;20837;-53
2022/08/19 10:47:53;;;;;;;2.93;2.83;;;;;;;29.05;44.64;99928.78;4974008;28;20530;-52
2022/08/19 10:53:25;;;;;;;2.60;2.00;;;;;;;28.69;45.21;99930.13;4966286;28;20477;-53
2022/08/19 10:58:36;;;;;;;2.90;2.70;;;;;;;28.84;45.13;99917.47;4973655;28;20444;-53
2022/08/19 11:01:02;;;;;;;3.30;3.10;;;;;;;28.82;44.26;99914.91;4986844;28;20981;-53
2022/08/19 11:03:30;;;;;;;2.90;2.77;;;;;;;29.25;43.23;99907.41;4965804;28;20823;-52
2022/08/19 11:05:58;;;;;;;3.33;1.87;;;;;;;29.12;44.75;99907.06;4968895;28;20458;-52
2022/08/19 11:08:26;;;;;;;2.43;2.33;;;;;;;29.28;43.47;99903.44;4973777;28;20481;-52
2022/08/19 11:11:00;;;;;;;2.43;2.30;;;;;;;28.89;44.57;99901.41;4960891;28;20460;-53
2022/08/19 11:13:28;;;;;;;7.37;2.67;;;;;;;28.68;44.91;99907.38;4973650;28;20498;-53
2022/08/19 11:16:07;;;;;;;2.73;2.53;;;;;;;28.94;46.10;99904.53;4969822;28;20445;-53
2022/08/19 11:18:37;;;;;;;4.43;2.87;;;;;;;28.93;45.55;99912.91;4966163;28;20453;-52
2022/08/19 11:21:10;;;;;;;2.60;2.40;;;;;;;28.77;45.53;99906.34;4973515;28;20453;-52
2022/08/19 11:23:38;;;;;;;2.67;2.50;;;;;;;28.96;45.82;99897.00;4960545;28;20448;-52
2022/08/19 11:26:05;;;;;;;2.77;2.57;;;;;;;28.96;46.05;99899.72;4973612;28;20944;-52
2022/08/19 11:28:31;;;;;;;4.20;3.63;;;;;;;28.98;47.00;99897.66;4971737;28;20598;-53
2022/08/19 11:30:59;;;;;;;3.37;3.07;;;;;;;29.22;45.95;99894.06;4961549;28;20450;-53
2022/08/19 11:33:26;;;;;;;2.33;2.20;;;;;;;29.23;43.90;99889.44;4973333;28;20494;-53
2022/08/19 11:35:53;;;;;;;4.20;2.87;;;;;;;29.06;44.26;99889.47;4973471;28;20461;-53
2022/08/19 11:38:20;;;;;;;4.87;2.60;;;;;;;29.36;43.29;99887.00;4960151;28;20916;-53
2022/08/19 11:40:58;;;;;;;2.20;2.00;;;;;;;29.27;42.55;99880.69;4973624;28;20458;-53
2022/08/19 11:43:26;;;;;;;2.80;2.00;;;;;;;29.48;41.67;99883.75;4970167;28;20443;-53
2022/08/19 11:45:55;;;;;;;1.43;1.33;;;;;;;29.31;41.95;99890.25;4964178;28;20489;-53
2022/08/19 11:48:22;;;;;;;3.20;2.50;;;;;;;29.37;42.85;99875.03;4973275;28;20471;-53
2022/08/19 11:50:49;;;;;;;2.90;1.80;;;;;;;29.45;42.58;99875.84;4962624;28;20456;-53
2022/08/19 11:53:19;;;;;;;2.33;2.23;;;;;;;29.34;43.27;99869.91;4971323;28;20861;-53
2022/08/19 11:55:47;;;;;;;1.97;1.87;;;;;;;29.58;42.24;99868.97;4973472;28;20433;-53
2022/08/19 11:58:15;;;;;;;1.67;1.57;;;;;;;29.55;42.31;99859.25;4960224;28;20463;-53
2022/08/19 12:00:44;;;;;;;3.60;2.20;;;;;;;29.88;41.70;99859.09;4973338;28;20617;-53
2022/08/19 12:03:14;;;;;;;1.97;1.87;;;;;;;29.64;43.04;99857.34;4960043;28;20762;-53
2022/08/19 12:05:41;;;;;;;19.63;2.40;;;;;;;29.78;40.60;99851.09;4973929;28;20835;-53
2022/08/19 12:08:08;;;;;;;2.57;2.40;;;;;;;29.93;40.98;99853.94;4976789;28;20459;-54